createdAt,value
2023-03-28T00:02:20.754Z,-2.34
2023-03-28T00:04:52.875Z,-2.30
2023-03-28T00:07:25.019Z,-2.27
2023-03-28T00:09:57.519Z,-2.29
2023-03-28T00:12:29.942Z,-2.30
2023-03-28T00:15:04.324Z,-2.29
2023-03-28T00:17:36.564Z,-2.28
2023-03-28T00:20:12.927Z,-2.25
2023-03-28T00:22:44.943Z,-2.24
2023-03-28T00:25:17.025Z,-2.23
2023-03-28T00:27:49.078Z,-2.20
2023-03-28T00:30:21.290Z,-2.19
2023-03-28T00:32:54.346Z,-2.16
2023-03-28T00:35:26.381Z,-2.13
2023-03-28T00:37:59.268Z,-2.11
2023-03-28T00:40:37.091Z,-2.10
2023-03-28T00:43:13.900Z,-2.07
2023-03-28T00:48:57.958Z,-2.02
2023-03-28T00:51:34.662Z,-2.03
2023-03-28T00:54:09.139Z,-2.02
2023-03-28T00:56:45.231Z,-2.01
2023-03-28T00:59:21.477Z,-2.01
2023-03-28T01:01:55.386Z,-2.00
2023-03-28T01:04:37.560Z,-2.01
2023-03-28T01:07:09.695Z,-2.00
2023-03-28T01:09:42.725Z,-2.00
2023-03-28T01:12:16.756Z,-2.00
2023-03-28T01:14:49.361Z,-1.99
2023-03-28T01:17:21.716Z,-1.99
2023-03-28T01:20:09.114Z,-1.98
2023-03-28T01:23:06.788Z,-2.00
2023-03-28T01:26:07.934Z,-1.96
2023-03-28T01:29:03.502Z,-1.92
2023-03-28T01:31:57.961Z,-1.86
2023-03-28T01:35:15.603Z,-1.78
2023-03-28T01:37:55.529Z,-1.72
2023-03-28T01:40:37.169Z,-1.70
2023-03-28T01:43:23.378Z,-1.66
2023-03-28T01:46:02.997Z,-1.64
2023-03-28T01:48:48.724Z,-1.63
2023-03-28T01:51:28.083Z,-1.60
2023-03-28T01:54:09.313Z,-1.57
2023-03-28T01:56:46.855Z,-1.53
2023-03-28T01:59:22.686Z,-1.51
2023-03-28T02:02:53.705Z,-1.47
2023-03-28T02:05:38.054Z,-1.50
2023-03-28T02:08:14.737Z,-1.49
2023-03-28T02:10:53.380Z,-1.47
2023-03-28T02:13:48.476Z,-1.45
2023-03-28T02:16:46.135Z,-1.42
2023-03-28T02:19:49.238Z,-1.39
2023-03-28T02:22:37.134Z,-1.33
2023-03-28T02:25:28.150Z,-1.28
2023-03-28T02:28:06.644Z,-1.27
2023-03-28T02:30:54.119Z,-1.31
2023-03-28T02:33:41.282Z,-1.32
2023-03-28T02:36:27.037Z,-1.33
2023-03-28T02:39:14.966Z,-1.34
2023-03-28T02:42:03.255Z,-1.36
2023-03-28T02:44:52.470Z,-1.33
2023-03-28T02:47:32.005Z,-1.30
2023-03-28T02:50:27.579Z,-1.29
2023-03-28T02:53:10.916Z,-1.34
2023-03-28T02:55:54.818Z,-1.34
2023-03-28T02:58:57.350Z,-1.35
2023-03-28T03:01:30.295Z,-1.35
2023-03-28T03:04:02.684Z,-1.30
2023-03-28T03:06:36.886Z,-1.24
2023-03-28T03:09:09.679Z,-1.20
2023-03-28T03:11:42.045Z,-1.20
2023-03-28T03:14:14.013Z,-1.17
2023-03-28T03:16:46.251Z,-1.12
2023-03-28T03:19:22.235Z,-1.05
2023-03-28T03:21:55.513Z,-0.98
2023-03-28T03:24:28.464Z,-0.92
2023-03-28T03:27:04.776Z,-0.89
2023-03-28T03:29:38.852Z,-0.86
2023-03-28T03:32:12.313Z,-0.80
2023-03-28T03:34:48.858Z,-0.73
2023-03-28T03:37:20.997Z,-0.67
2023-03-28T03:39:55.195Z,-0.64
2023-03-28T03:42:33.863Z,-0.61
2023-03-28T03:45:06.940Z,-0.58
2023-03-28T03:47:39.301Z,-0.56
2023-03-28T03:50:14.025Z,-0.54
2023-03-28T03:52:46.950Z,-0.52
2023-03-28T03:55:20.960Z,-0.50
2023-03-28T03:57:53.339Z,-0.48
2023-03-28T04:00:25.851Z,-0.46
2023-03-28T04:02:57.866Z,-0.42
2023-03-28T04:05:31.342Z,-0.40
2023-03-28T04:08:08.773Z,-0.39
2023-03-28T04:10:44.321Z,-0.37
2023-03-28T04:13:17.326Z,-0.34
2023-03-28T04:15:50.115Z,-0.34
2023-03-28T04:18:34.285Z,-0.33
2023-03-28T04:21:09.765Z,-0.34
2023-03-28T04:23:48.960Z,-0.32
2023-03-28T04:26:35.841Z,-0.31
2023-03-28T04:29:12.763Z,-0.28
2023-03-28T04:31:50.083Z,-0.25
2023-03-28T04:34:30.321Z,-0.25
2023-03-28T04:37:10.362Z,-0.26
2023-03-28T04:39:49.807Z,-0.27
2023-03-28T04:42:39.734Z,-0.23
2023-03-28T04:45:26.871Z,-0.21
2023-03-28T04:47:59.423Z,-0.20
2023-03-28T04:50:32.892Z,-0.22
2023-03-28T04:53:06.020Z,-0.23
2023-03-28T04:55:38.957Z,-0.22
2023-03-28T04:58:22.876Z,-0.23
2023-03-28T05:00:56.081Z,-0.25
2023-03-28T05:03:31.136Z,-0.25
2023-03-28T05:06:08.509Z,-0.24
2023-03-28T05:08:40.651Z,-0.20
2023-03-28T05:11:13.707Z,-0.16
2023-03-28T05:13:48.393Z,-0.14
2023-03-28T05:16:43.120Z,-0.11
2023-03-28T05:19:44.719Z,-0.09
2023-03-28T05:22:30.109Z,-0.06
2023-03-28T05:25:04.539Z,-0.04
2023-03-28T05:27:38.319Z,-0.04
2023-03-28T05:30:13.103Z,-0.02
2023-03-28T05:32:45.602Z,0.03
2023-03-28T05:35:18.188Z,0.09
2023-03-28T05:37:50.539Z,0.21
2023-03-28T05:40:22.826Z,0.30
2023-03-28T05:42:54.998Z,0.33
2023-03-28T05:45:28.751Z,0.35
2023-03-28T05:48:12.387Z,0.40
2023-03-28T05:50:45.628Z,0.43
2023-03-28T05:53:17.772Z,0.47
2023-03-28T05:55:49.879Z,0.55
2023-03-28T05:58:22.572Z,0.54
2023-03-28T06:00:54.832Z,0.45
2023-03-28T06:03:32.149Z,0.43
2023-03-28T06:06:09.665Z,0.53
2023-03-28T06:08:41.931Z,0.60
2023-03-28T06:11:14.682Z,0.60
2023-03-28T06:14:07.801Z,0.60
2023-03-28T06:16:40.819Z,0.64
2023-03-28T06:19:17.726Z,0.71
2023-03-28T06:21:54.988Z,0.72
2023-03-28T06:24:27.045Z,0.75
2023-03-28T06:27:00.443Z,0.75
2023-03-28T06:29:32.859Z,0.66
2023-03-28T06:32:07.898Z,0.52
2023-03-28T06:34:40.010Z,0.43
2023-03-28T06:37:13.672Z,0.37
2023-03-28T06:40:04.592Z,0.39
2023-03-28T06:42:36.841Z,0.47
2023-03-28T06:45:31.489Z,0.62
2023-03-28T06:48:08.734Z,0.66
2023-03-28T06:51:13.263Z,0.66
2023-03-28T06:53:46.461Z,0.60
2023-03-28T06:56:18.861Z,0.55
2023-03-28T06:58:51.046Z,0.51
2023-03-28T07:01:27.158Z,0.50
2023-03-28T07:04:09.158Z,0.51
2023-03-28T07:06:41.463Z,0.51
2023-03-28T07:09:13.824Z,0.49
2023-03-28T07:11:49.980Z,0.50
2023-03-28T07:14:22.323Z,0.51
2023-03-28T07:16:55.099Z,0.57
2023-03-28T07:19:30.244Z,0.71
2023-03-28T07:22:02.301Z,0.73
2023-03-28T07:24:34.452Z,0.79
2023-03-28T07:27:18.465Z,0.86
2023-03-28T07:29:51.001Z,0.84
2023-03-28T07:32:23.535Z,0.85
2023-03-28T07:34:55.946Z,0.92
2023-03-28T07:37:30.009Z,0.98
2023-03-28T07:40:16.602Z,0.96
2023-03-28T07:42:50.854Z,0.85
2023-03-28T07:45:22.832Z,1.03
2023-03-28T07:47:54.914Z,1.53
2023-03-28T07:50:27.647Z,1.80
2023-03-28T07:53:01.186Z,2.05
2023-03-28T07:58:13.768Z,1.83
2023-03-28T08:00:48.693Z,1.70
2023-03-28T08:03:39.655Z,1.66
2023-03-28T08:06:28.580Z,1.65
2023-03-28T08:09:02.274Z,1.60
2023-03-28T08:11:42.069Z,1.67
2023-03-28T08:14:16.750Z,1.81
2023-03-28T08:16:49.072Z,1.98
2023-03-28T08:19:21.244Z,2.11
2023-03-28T08:22:12.517Z,2.31
2023-03-28T08:25:09.671Z,3.37
2023-03-28T08:27:42.861Z,2.99
2023-03-28T08:30:17.251Z,2.55
2023-03-28T08:32:59.361Z,2.28
2023-03-28T08:35:34.679Z,2.55
2023-03-28T08:38:11.450Z,3.00
2023-03-28T08:40:50.507Z,3.67
2023-03-28T08:43:41.642Z,3.64
2023-03-28T08:46:17.734Z,3.18
2023-03-28T08:48:53.180Z,2.80
2023-03-28T08:51:31.664Z,3.06
2023-03-28T08:54:13.905Z,4.04
2023-03-28T08:56:50.095Z,4.71
2023-03-28T08:59:26.628Z,4.64
2023-03-28T09:01:58.796Z,4.07
2023-03-28T09:04:36.146Z,4.44
2023-03-28T09:07:24.337Z,7.20
2023-03-28T09:10:08.490Z,10.08
2023-03-28T09:13:05.722Z,9.72
2023-03-28T09:15:48.476Z,7.76
2023-03-28T09:18:54.991Z,6.33
2023-03-28T09:21:34.825Z,5.13
2023-03-28T09:24:21.574Z,4.33
2023-03-28T09:27:25.317Z,4.04
2023-03-28T09:30:04.882Z,4.83
2023-03-28T09:32:41.141Z,8.12
2023-03-28T09:35:18.865Z,10.09
2023-03-28T09:37:56.764Z,10.30
2023-03-28T09:40:32.989Z,8.64
2023-03-28T09:43:32.873Z,9.73
2023-03-28T09:46:22.413Z,12.39
2023-03-28T09:49:07.579Z,14.51
2023-03-28T09:51:41.527Z,15.68
2023-03-28T09:54:14.134Z,13.97
2023-03-28T09:56:47.153Z,12.45
2023-03-28T09:59:31.020Z,10.12
2023-03-28T10:02:25.536Z,9.88
2023-03-28T10:04:58.326Z,10.69
2023-03-28T10:07:44.956Z,9.61
2023-03-28T10:10:43.033Z,7.95
2023-03-28T10:13:20.761Z,8.13
2023-03-28T10:15:56.984Z,9.03
2023-03-28T10:18:53.673Z,9.89
2023-03-28T10:21:49.288Z,9.60
2023-03-28T10:24:26.270Z,9.79
2023-03-28T10:27:07.193Z,9.47
2023-03-28T10:29:40.131Z,9.11
2023-03-28T10:32:24.999Z,8.86
2023-03-28T10:35:25.064Z,8.32
2023-03-28T10:38:07.097Z,7.59
2023-03-28T10:40:54.938Z,7.31
2023-03-28T10:43:44.823Z,7.39
2023-03-28T10:46:23.918Z,7.74
2023-03-28T10:49:19.716Z,7.83
2023-03-28T10:52:00.265Z,7.69
2023-03-28T10:54:46.288Z,7.00
2023-03-28T10:57:36.039Z,6.29
2023-03-28T11:00:16.044Z,5.70
2023-03-28T11:03:16.099Z,5.31
2023-03-28T11:06:08.770Z,5.09
2023-03-28T11:09:02.289Z,5.00
2023-03-28T11:11:58.686Z,4.88
2023-03-28T11:14:42.628Z,5.33
2023-03-28T11:17:23.275Z,5.70
2023-03-28T11:20:24.910Z,5.55
2023-03-28T11:23:14.619Z,5.21
2023-03-28T11:26:04.706Z,4.66
2023-03-28T11:29:13.111Z,4.24
2023-03-28T11:31:49.123Z,4.11
2023-03-28T11:34:31.582Z,4.16
2023-03-28T11:37:08.665Z,4.24
2023-03-28T11:39:45.706Z,4.27
2023-03-28T11:42:25.686Z,5.18
2023-03-28T11:45:06.956Z,5.88
2023-03-28T11:47:43.461Z,6.06
2023-03-28T11:50:23.524Z,6.07
2023-03-28T11:53:14.187Z,6.59
2023-03-28T11:56:01.633Z,6.76
2023-03-28T11:59:09.112Z,6.96
2023-03-28T12:01:46.360Z,7.07
2023-03-28T12:04:24.256Z,7.15
2023-03-28T12:07:08.989Z,6.72
2023-03-28T12:09:58.887Z,6.91
2023-03-28T12:12:34.338Z,6.94
2023-03-28T12:15:12.979Z,6.84
2023-03-28T12:17:56.678Z,6.21
2023-03-28T12:20:37.963Z,5.53
2023-03-28T12:23:24.298Z,5.00
2023-03-28T12:26:26.694Z,4.08
2023-03-28T12:29:03.289Z,3.42
2023-03-28T12:31:42.985Z,2.79
2023-03-28T12:34:30.864Z,2.21
2023-03-28T12:37:30.132Z,1.63
2023-03-28T12:40:19.986Z,1.17
2023-03-28T12:42:55.639Z,0.88
2023-03-28T12:45:32.252Z,0.73
2023-03-28T12:48:09.143Z,0.67
2023-03-28T12:50:50.866Z,0.65
2023-03-28T12:53:25.983Z,0.74
2023-03-28T12:55:58.288Z,0.91
2023-03-28T12:58:38.206Z,1.20
2023-03-28T13:01:29.067Z,1.67
2023-03-28T13:04:33.236Z,2.25
2023-03-28T13:07:52.797Z,2.80
2023-03-28T13:10:31.141Z,3.14
2023-03-28T13:13:15.056Z,3.36
2023-03-28T13:16:03.499Z,3.38
2023-03-28T13:18:49.207Z,3.57
2023-03-28T13:21:44.387Z,3.69
2023-03-28T13:27:29.594Z,3.54
2023-03-28T13:30:07.786Z,3.34
2023-03-28T13:32:45.770Z,3.09
2023-03-28T13:35:38.480Z,2.87
2023-03-28T13:38:44.646Z,2.66
2023-03-28T13:41:38.044Z,2.87
2023-03-28T13:44:16.357Z,3.19
2023-03-28T13:46:51.003Z,3.54
2023-03-28T13:49:25.903Z,3.85
2023-03-28T13:52:04.443Z,4.03
2023-03-28T13:54:36.873Z,3.98
2023-03-28T13:57:16.212Z,3.94
2023-03-28T13:59:56.462Z,3.83
2023-03-28T14:02:39.170Z,3.65
2023-03-28T14:05:20.569Z,3.44
2023-03-28T14:08:20.771Z,3.19
2023-03-28T14:10:57.052Z,2.94
2023-03-28T14:13:33.629Z,2.67
2023-03-28T14:16:10.271Z,2.47
2023-03-28T14:18:45.350Z,2.45
2023-03-28T14:21:17.830Z,2.50
2023-03-28T14:23:59.639Z,2.67
2023-03-28T14:26:35.543Z,2.89
2023-03-28T14:29:11.603Z,3.01
2023-03-28T14:31:47.048Z,3.20
2023-03-28T14:34:25.838Z,3.48
2023-03-28T14:37:03.628Z,3.63
2023-03-28T14:39:38.318Z,3.67
2023-03-28T14:42:16.209Z,3.60
2023-03-28T14:44:52.261Z,3.39
2023-03-28T14:47:31.244Z,3.12
2023-03-28T14:50:05.365Z,2.90
2023-03-28T14:52:41.166Z,2.72
2023-03-28T14:55:19.895Z,2.54
2023-03-28T14:57:53.868Z,2.46
2023-03-28T15:00:29.281Z,2.46
2023-03-28T15:03:03.455Z,2.52
2023-03-28T15:05:37.500Z,2.54
2023-03-28T15:08:25.559Z,2.51
2023-03-28T15:11:03.464Z,2.44
2023-03-28T15:13:38.726Z,2.43
2023-03-28T15:16:16.689Z,2.43
2023-03-28T15:19:00.370Z,2.44
2023-03-28T15:21:34.014Z,2.39
2023-03-28T15:24:07.478Z,2.25
2023-03-28T15:26:43.423Z,2.19
2023-03-28T15:29:19.997Z,2.13
2023-03-28T15:31:53.300Z,2.01
2023-03-28T15:34:28.041Z,1.93
2023-03-28T15:37:03.853Z,1.89
2023-03-28T15:39:37.130Z,1.83
2023-03-28T15:42:35.356Z,1.80
2023-03-28T15:45:25.613Z,1.69
2023-03-28T15:47:58.601Z,1.54
2023-03-28T15:50:36.600Z,1.38
2023-03-28T15:53:15.189Z,1.24
2023-03-28T15:55:48.817Z,1.14
2023-03-28T15:58:23.423Z,1.06
2023-03-28T16:00:56.452Z,1.04
2023-03-28T16:03:37.393Z,1.03
2023-03-28T16:06:41.775Z,0.98
2023-03-28T16:09:21.576Z,0.95
2023-03-28T16:12:00.478Z,0.97
2023-03-28T16:14:50.206Z,0.92
2023-03-28T16:17:47.470Z,0.87
2023-03-28T16:20:31.908Z,0.85
2023-03-28T16:23:09.536Z,0.87
2023-03-28T16:25:42.182Z,0.88
2023-03-28T16:28:18.418Z,0.89
2023-03-28T16:30:50.700Z,0.91
2023-03-28T16:33:22.819Z,0.90
2023-03-28T16:35:55.286Z,0.86
2023-03-28T16:38:28.022Z,0.74
2023-03-28T16:41:00.121Z,0.63
2023-03-28T16:43:32.179Z,0.57
2023-03-28T16:46:04.521Z,0.53
2023-03-28T16:48:37.289Z,0.48
2023-03-28T16:51:09.661Z,0.47
2023-03-28T16:53:42.698Z,0.45
2023-03-28T16:56:18.152Z,0.43
2023-03-28T16:58:50.576Z,0.39
2023-03-28T17:01:23.052Z,0.37
2023-03-28T17:03:59.336Z,0.37
2023-03-28T17:09:44.264Z,0.37
2023-03-28T17:12:16.639Z,0.31
2023-03-28T17:14:49.323Z,0.29
2023-03-28T17:17:23.041Z,0.28
2023-03-28T17:19:55.480Z,0.25
2023-03-28T17:22:27.930Z,0.23
2023-03-28T17:25:02.309Z,0.17
2023-03-28T17:27:34.569Z,0.08
2023-03-28T17:30:08.996Z,-0.00
2023-03-28T17:32:42.185Z,-0.08
2023-03-28T17:35:15.294Z,-0.10
2023-03-28T17:37:48.369Z,-0.11
2023-03-28T17:40:21.425Z,-0.10
2023-03-28T17:42:54.092Z,-0.06
2023-03-28T17:45:29.109Z,-0.05
2023-03-28T17:48:01.955Z,-0.06
2023-03-28T17:50:34.218Z,-0.06
2023-03-28T17:53:09.794Z,-0.06
2023-03-28T17:55:44.519Z,-0.06
2023-03-28T17:58:16.899Z,-0.06
2023-03-28T18:00:49.396Z,-0.09
2023-03-28T18:03:21.693Z,-0.14
2023-03-28T18:06:07.970Z,-0.17
2023-03-28T18:08:40.434Z,-0.18
2023-03-28T18:11:14.727Z,-0.18
2023-03-28T18:13:47.131Z,-0.16
2023-03-28T18:16:21.748Z,-0.13
2023-03-28T18:18:54.606Z,-0.10
2023-03-28T18:21:27.188Z,-0.09
2023-03-28T18:23:59.581Z,-0.07
2023-03-28T18:26:32.086Z,-0.05
2023-03-28T18:29:05.038Z,-0.02
2023-03-28T18:31:39.159Z,-0.01
2023-03-28T18:34:11.952Z,-0.02
2023-03-28T18:36:46.215Z,-0.02
2023-03-28T18:39:21.211Z,-0.03
2023-03-28T18:41:53.326Z,-0.03
2023-03-28T18:44:25.504Z,-0.01
2023-03-28T18:47:02.721Z,0.03
2023-03-28T18:49:41.095Z,0.04
2023-03-28T18:52:13.430Z,0.03
2023-03-28T18:54:47.685Z,0.02
2023-03-28T18:57:20.940Z,0.04
2023-03-28T18:59:55.720Z,0.02
2023-03-28T19:02:29.460Z,0.01
2023-03-28T19:05:02.149Z,-0.01
2023-03-28T19:07:34.841Z,-0.01
2023-03-28T19:10:08.874Z,-0.01
2023-03-28T19:12:42.272Z,-0.06
2023-03-28T19:15:15.593Z,-0.08
2023-03-28T19:17:48.029Z,-0.07
2023-03-28T19:20:20.350Z,-0.08
2023-03-28T19:22:52.903Z,-0.07
2023-03-28T19:25:25.240Z,-0.07
2023-03-28T19:27:57.939Z,-0.09
2023-03-28T19:30:30.793Z,-0.11
2023-03-28T19:33:04.997Z,-0.12
2023-03-28T19:35:39.712Z,-0.12
2023-03-28T19:38:11.798Z,-0.13
2023-03-28T19:40:46.273Z,-0.16
2023-03-28T19:43:21.264Z,-0.18
2023-03-28T19:45:53.275Z,-0.21
2023-03-28T19:48:47.177Z,-0.24
2023-03-28T19:51:20.123Z,-0.24
2023-03-28T19:53:52.257Z,-0.26
2023-03-28T19:56:27.214Z,-0.26
2023-03-28T19:58:59.220Z,-0.26
2023-03-28T20:01:31.616Z,-0.29
2023-03-28T20:04:03.871Z,-0.33
2023-03-28T20:06:35.917Z,-0.37
2023-03-28T20:09:08.293Z,-0.40
2023-03-28T20:11:42.099Z,-0.43
2023-03-28T20:14:17.637Z,-0.48
2023-03-28T20:16:49.764Z,-0.51
2023-03-28T20:19:23.372Z,-0.55
2023-03-28T20:21:55.325Z,-0.57
2023-03-28T20:24:27.479Z,-0.59
2023-03-28T20:26:59.708Z,-0.62
2023-03-28T20:29:32.989Z,-0.65
2023-03-28T20:32:05.725Z,-0.67
2023-03-28T20:34:38.618Z,-0.69
2023-03-28T20:37:14.665Z,-0.69
2023-03-28T20:39:49.022Z,-0.70
2023-03-28T20:42:21.090Z,-0.71
2023-03-28T20:44:54.308Z,-0.73
2023-03-28T20:47:28.857Z,-0.74
2023-03-28T20:50:05.718Z,-0.74
2023-03-28T20:52:39.757Z,-0.75
2023-03-28T20:55:15.102Z,-0.77
2023-03-28T20:57:47.988Z,-0.78
2023-03-28T21:00:23.606Z,-0.78
2023-03-28T21:02:55.699Z,-0.78
2023-03-28T21:05:28.861Z,-0.78
2023-03-28T21:08:02.249Z,-0.79
2023-03-28T21:10:34.395Z,-0.78
2023-03-28T21:13:06.474Z,-0.79
2023-03-28T21:15:38.629Z,-0.80
2023-03-28T21:18:12.495Z,-0.80
2023-03-28T21:20:44.777Z,-0.83
2023-03-28T21:23:17.929Z,-0.86
2023-03-28T21:25:52.945Z,-0.88
2023-03-28T21:28:25.611Z,-0.90
2023-03-28T21:31:01.828Z,-0.91
2023-03-28T21:33:34.039Z,-0.92
2023-03-28T21:36:07.655Z,-0.92
2023-03-28T21:38:42.052Z,-0.94
2023-03-28T21:41:14.520Z,-0.98
2023-03-28T21:43:47.692Z,-1.00
2023-03-28T21:46:20.851Z,-1.02
2023-03-28T21:48:52.931Z,-1.05
2023-03-28T21:51:25.851Z,-1.12
2023-03-28T21:53:58.242Z,-1.18
2023-03-28T21:56:30.678Z,-1.23
2023-03-28T21:59:05.872Z,-1.29
2023-03-28T22:01:38.689Z,-1.31
2023-03-28T22:04:10.746Z,-1.33
2023-03-28T22:06:42.656Z,-1.37
2023-03-28T22:09:17.510Z,-1.42
2023-03-28T22:11:49.542Z,-1.42
2023-03-28T22:14:21.525Z,-1.43
2023-03-28T22:16:53.731Z,-1.46
2023-03-28T22:19:30.291Z,-1.50
2023-03-28T22:22:04.581Z,-1.55
2023-03-28T22:24:37.412Z,-1.58
2023-03-28T22:27:09.740Z,-1.60
2023-03-28T22:29:43.010Z,-1.62
2023-03-28T22:32:15.162Z,-1.62
2023-03-28T22:34:48.149Z,-1.63
2023-03-28T22:37:20.266Z,-1.66
2023-03-28T22:39:53.793Z,-1.66
2023-03-28T22:42:26.514Z,-1.66
2023-03-28T22:44:58.493Z,-1.66
2023-03-28T22:47:31.323Z,-1.67
2023-03-28T22:50:04.864Z,-1.68
2023-03-28T22:52:38.066Z,-1.70
2023-03-28T22:55:13.575Z,-1.73
2023-03-28T22:57:46.173Z,-1.81
2023-03-28T23:00:18.837Z,-1.86
2023-03-28T23:02:51.932Z,-1.89
2023-03-28T23:05:24.570Z,-1.92
2023-03-28T23:07:56.714Z,-1.95
2023-03-28T23:10:29.002Z,-1.98
2023-03-28T23:13:01.974Z,-2.03
2023-03-28T23:15:34.134Z,-2.07
2023-03-28T23:18:12.192Z,-2.08
2023-03-28T23:20:45.510Z,-2.11
2023-03-28T23:23:18.369Z,-2.14
2023-03-28T23:25:50.458Z,-2.19
2023-03-28T23:28:24.282Z,-2.23
2023-03-28T23:30:56.286Z,-2.29
2023-03-28T23:33:28.317Z,-2.36
2023-03-28T23:36:01.076Z,-2.43
2023-03-28T23:38:33.317Z,-2.51
2023-03-28T23:41:05.434Z,-2.56
2023-03-28T23:43:37.432Z,-2.60
2023-03-28T23:46:09.679Z,-2.64
2023-03-28T23:48:41.813Z,-2.66
2023-03-28T23:51:14.155Z,-2.67
2023-03-28T23:53:46.137Z,-2.67
2023-03-28T23:56:18.228Z,-2.62
2023-03-28T23:58:50.176Z,-2.60
